Bila Tserkva, Ukraine

3:15 AM EET on February 07, 2016 (GMT +0200)
Zhuliany | | Change Station
CLOSE
Current Station
Airport
Location: Kyiv,
Elevation: 584 ft
Nearby Weather Stations

Elev 584 ft 50.40 °N, 30.45 °E | Updated 15 minutes ago

Clear
Clear
21 °F
Feels Like 15 °F
N
4
Wind Variable Wind from WSW

Today
High -- | Low -- °F
--% Chance of Precip.
Yesterday
High -- | Low -- °F
Precip. -- in
Pressure 30.30 in
Visibility 5.0 miles
Clouds Clear
Windchill 15 °F
Dew Point 18 °F
Humidity 86%
Rainfall 0.00 in
Snow Depth Not available.
7:24 AM 5:03 PM
Waning Crescent, 3% visible
METAR UKKK 070100Z 25002MPS 8000 SKC M06/M08 Q1026 26190060 NOSIG
Pressure 30.30 in
Visibility 5.0 miles
Clouds Clear
Windchill 15 °F
Dew Point 18 °F
Humidity 86%
Rainfall 0.00 in
Snow Depth Not available.
7:24 AM 5:03 PM
Waning Crescent, 3% visible
METAR UKKK 070100Z 25002MPS 8000 SKC M06/M08 Q1026 26190060 NOSIG

10-Day Weather Forecast

Almanac

Astronomy

Feb. 07, 2016 Rise Set
Actual Time
Civil Twilight
Nautical Twilight
Astronomical Twilight
Moon
Length of Visible Light
Length of Day
Tomorrow will be .
, % of the Moon is Illuminated

Today's Extremes

Country Highs Country Lows

Community

WunderPhotos

Upload Photos

1,891,117 photos uploaded!

WunderBlog® & News

Nearby

Air Quality

  Air Quality AQ Index Pollutant
Not available.

Snow Depth

Station Depth Elevation

Earthquake Activity

City Distance Mag. Time & Date
Minimum magnitude displayed is 2.5.

Coastal Water Temperatures

Place Temperature

Stations

Nearby Weather Stations

Station Location Temp. Windchill Dew Point Humidity Wind Precip. Elev Updated Type